Terminal Aerodrome Forecast
Issued by NWS

Home | Current Version | Previous Version | Text Only | Print | Product List | Glossary On
Versions: 1 2 3 4 5 6 7 8 9 10 11 12 13 14 15 16 17 18 19 20 21 22
000
FTUS43 KBIS 310500
TAFMOT
TAF
KMOT 310539Z 3106/0106 20004KT P6SM SKC
     FM310900 17009KT P6SM SKC
     FM311200 16011KT P6SM FEW300
     FM311600 15014G22KT P6SM SCT250
     FM311900 14019G25KT P6SM SCT200
     FM010000 14016G22KT P6SM SCT220=

USA.gov is the U.S. government's official web portal to all federal, state and local government web resources and services.